Junction City, Oregon
Current Conditions -  °F | °C
As of 8:54 AM on Wednesday 26 Nov 2014 (Local Time) from KEUG Reporting Station
Broken Clouds Broken Clouds  
Wind Chill: 50°   Ceiling: 25000
Heat Index: 50°   Visibility: 10mi
Dew Point: 46°   Wind: 7mph
Humidity: 86%   Direction: 190°S
Pressure: 30.19"   Gusts: NA
Location:  44.22°N, 123.21°W
Report Text: KEUG 261654Z 19006KT 10SM FEW005 BKN250 10/08 A3019 RMK AO2 SLP225 T01000078
Loading
Personal Weather Stations






























Interactive Weather Map New forecast layout! Learn more

10-Day Weather Forecast

Advertisements
Track Severe Weather on mobile